sensor_id;sensor_type;location;lat;lon;timestamp;temperature;humidity
20432;DHT22;10375;49.136;10.366;2022-07-18T00:00:46;14.80;71.50
20432;DHT22;10375;49.136;10.366;2022-07-18T00:03:14;14.70;72.60
20432;DHT22;10375;49.136;10.366;2022-07-18T00:05:43;14.70;73.50
20432;DHT22;10375;49.136;10.366;2022-07-18T00:08:10;14.70;73.20
20432;DHT22;10375;49.136;10.366;2022-07-18T00:10:37;14.60;72.60
20432;DHT22;10375;49.136;10.366;2022-07-18T00:13:05;14.50;73.30
20432;DHT22;10375;49.136;10.366;2022-07-18T00:15:32;14.50;72.70
20432;DHT22;10375;49.136;10.366;2022-07-18T00:17:59;14.40;73.50
20432;DHT22;10375;49.136;10.366;2022-07-18T00:20:26;14.40;74.20
20432;DHT22;10375;49.136;10.366;2022-07-18T00:22:53;14.30;74.70
20432;DHT22;10375;49.136;10.366;2022-07-18T00:25:21;14.20;75.30
20432;DHT22;10375;49.136;10.366;2022-07-18T00:27:48;14.10;75.40
20432;DHT22;10375;49.136;10.366;2022-07-18T00:30:16;14.00;76.50
20432;DHT22;10375;49.136;10.366;2022-07-18T00:32:44;14.00;76.80
20432;DHT22;10375;49.136;10.366;2022-07-18T00:35:11;14.00;76.80
20432;DHT22;10375;49.136;10.366;2022-07-18T00:37:38;13.90;77.40
20432;DHT22;10375;49.136;10.366;2022-07-18T00:40:06;13.80;78.20
20432;DHT22;10375;49.136;10.366;2022-07-18T00:42:33;13.80;79.50
20432;DHT22;10375;49.136;10.366;2022-07-18T00:45:00;13.70;79.00
20432;DHT22;10375;49.136;10.366;2022-07-18T00:47:27;13.60;78.40
20432;DHT22;10375;49.136;10.366;2022-07-18T00:49:54;13.50;78.50
20432;DHT22;10375;49.136;10.366;2022-07-18T00:52:21;13.50;79.00
20432;DHT22;10375;49.136;10.366;2022-07-18T00:54:48;13.40;79.30
20432;DHT22;10375;49.136;10.366;2022-07-18T00:57:16;13.40;79.30
20432;DHT22;10375;49.136;10.366;2022-07-18T00:59:44;13.40;79.10
20432;DHT22;10375;49.136;10.366;2022-07-18T01:02:30;13.40;80.10
20432;DHT22;10375;49.136;10.366;2022-07-18T01:04:58;13.30;79.90
20432;DHT22;10375;49.136;10.366;2022-07-18T01:07:25;13.30;79.60
20432;DHT22;10375;49.136;10.366;2022-07-18T01:09:52;13.30;80.00
20432;DHT22;10375;49.136;10.366;2022-07-18T01:12:19;13.30;80.00
20432;DHT22;10375;49.136;10.366;2022-07-18T01:14:47;13.30;80.60
20432;DHT22;10375;49.136;10.366;2022-07-18T01:17:16;13.40;81.20
20432;DHT22;10375;49.136;10.366;2022-07-18T01:19:44;13.40;81.10
20432;DHT22;10375;49.136;10.366;2022-07-18T01:22:12;13.40;81.00
20432;DHT22;10375;49.136;10.366;2022-07-18T01:24:40;13.40;81.30
20432;DHT22;10375;49.136;10.366;2022-07-18T01:27:08;13.30;80.10
20432;DHT22;10375;49.136;10.366;2022-07-18T01:29:35;13.30;80.00
20432;DHT22;10375;49.136;10.366;2022-07-18T01:32:09;13.30;80.20
20432;DHT22;10375;49.136;10.366;2022-07-18T01:34:36;13.30;80.50
20432;DHT22;10375;49.136;10.366;2022-07-18T01:37:04;13.20;81.20
20432;DHT22;10375;49.136;10.366;2022-07-18T01:39:31;13.20;82.00
20432;DHT22;10375;49.136;10.366;2022-07-18T01:42:01;13.20;82.90
20432;DHT22;10375;49.136;10.366;2022-07-18T01:44:28;13.10;82.90
20432;DHT22;10375;49.136;10.366;2022-07-18T01:46:55;13.00;82.60
20432;DHT22;10375;49.136;10.366;2022-07-18T01:49:23;12.90;82.40
20432;DHT22;10375;49.136;10.366;2022-07-18T01:51:53;13.00;82.60
20432;DHT22;10375;49.136;10.366;2022-07-18T01:54:25;13.00;83.10
20432;DHT22;10375;49.136;10.366;2022-07-18T01:56:52;12.90;83.30
20432;DHT22;10375;49.136;10.366;2022-07-18T01:59:20;12.80;83.40
20432;DHT22;10375;49.136;10.366;2022-07-18T02:01:47;12.80;83.50
20432;DHT22;10375;49.136;10.366;2022-07-18T02:04:14;12.70;83.90
20432;DHT22;10375;49.136;10.366;2022-07-18T02:06:41;12.70;84.80
20432;DHT22;10375;49.136;10.366;2022-07-18T02:09:09;12.60;83.70
20432;DHT22;10375;49.136;10.366;2022-07-18T02:11:37;12.60;83.60
20432;DHT22;10375;49.136;10.366;2022-07-18T02:14:05;12.60;84.10
20432;DHT22;10375;49.136;10.366;2022-07-18T02:16:32;12.60;84.10
20432;DHT22;10375;49.136;10.366;2022-07-18T02:19:00;12.60;83.90
20432;DHT22;10375;49.136;10.366;2022-07-18T02:21:27;12.50;84.60
20432;DHT22;10375;49.136;10.366;2022-07-18T02:23:54;12.50;84.60
20432;DHT22;10375;49.136;10.366;2022-07-18T02:26:21;12.50;85.30
20432;DHT22;10375;49.136;10.366;2022-07-18T02:28:49;12.50;85.30
20432;DHT22;10375;49.136;10.366;2022-07-18T02:31:16;12.50;85.50
20432;DHT22;10375;49.136;10.366;2022-07-18T02:33:43;12.50;85.30
20432;DHT22;10375;49.136;10.366;2022-07-18T02:36:10;12.40;85.50
20432;DHT22;10375;49.136;10.366;2022-07-18T02:38:37;12.40;85.80
20432;DHT22;10375;49.136;10.366;2022-07-18T02:41:04;12.40;85.80
20432;DHT22;10375;49.136;10.366;2022-07-18T02:43:31;12.40;85.50
20432;DHT22;10375;49.136;10.366;2022-07-18T02:45:58;12.30;85.50
20432;DHT22;10375;49.136;10.366;2022-07-18T02:48:25;12.30;85.70
20432;DHT22;10375;49.136;10.366;2022-07-18T02:50:52;12.30;86.10
20432;DHT22;10375;49.136;10.366;2022-07-18T02:53:19;12.20;86.60
20432;DHT22;10375;49.136;10.366;2022-07-18T02:55:50;12.20;86.70
20432;DHT22;10375;49.136;10.366;2022-07-18T02:58:18;12.10;87.00
20432;DHT22;10375;49.136;10.366;2022-07-18T03:00:45;12.10;87.40
20432;DHT22;10375;49.136;10.366;2022-07-18T03:03:12;12.00;87.90
20432;DHT22;10375;49.136;10.366;2022-07-18T03:05:39;12.00;88.80
20432;DHT22;10375;49.136;10.366;2022-07-18T03:08:06;11.90;89.20
20432;DHT22;10375;49.136;10.366;2022-07-18T03:10:33;11.80;89.50
20432;DHT22;10375;49.136;10.366;2022-07-18T03:13:00;11.80;89.40
20432;DHT22;10375;49.136;10.366;2022-07-18T03:15:27;11.80;89.40
20432;DHT22;10375;49.136;10.366;2022-07-18T03:17:54;11.70;89.70
20432;DHT22;10375;49.136;10.366;2022-07-18T03:20:22;11.70;90.10
20432;DHT22;10375;49.136;10.366;2022-07-18T03:22:49;11.70;90.40
20432;DHT22;10375;49.136;10.366;2022-07-18T03:25:16;11.60;90.70
20432;DHT22;10375;49.136;10.366;2022-07-18T03:27:43;11.70;90.70
20432;DHT22;10375;49.136;10.366;2022-07-18T03:30:11;11.60;90.80
20432;DHT22;10375;49.136;10.366;2022-07-18T03:32:38;11.60;91.10
20432;DHT22;10375;49.136;10.366;2022-07-18T03:35:06;11.60;91.10
20432;DHT22;10375;49.136;10.366;2022-07-18T03:37:33;11.60;90.90
20432;DHT22;10375;49.136;10.366;2022-07-18T03:40:00;11.60;90.80
20432;DHT22;10375;49.136;10.366;2022-07-18T03:42:27;11.60;90.90
20432;DHT22;10375;49.136;10.366;2022-07-18T03:44:54;11.70;90.90
20432;DHT22;10375;49.136;10.366;2022-07-18T03:47:21;11.70;90.80
20432;DHT22;10375;49.136;10.366;2022-07-18T03:49:48;11.70;90.90
20432;DHT22;10375;49.136;10.366;2022-07-18T03:52:16;11.70;91.10
20432;DHT22;10375;49.136;10.366;2022-07-18T03:54:43;11.80;91.00
20432;DHT22;10375;49.136;10.366;2022-07-18T03:57:10;11.80;90.60
20432;DHT22;10375;49.136;10.366;2022-07-18T03:59:37;11.90;90.10
20432;DHT22;10375;49.136;10.366;2022-07-18T04:02:04;11.90;90.00
20432;DHT22;10375;49.136;10.366;2022-07-18T04:04:32;12.00;90.00
20432;DHT22;10375;49.136;10.366;2022-07-18T04:06:59;11.90;90.10
20432;DHT22;10375;49.136;10.366;2022-07-18T04:09:27;12.00;90.70
20432;DHT22;10375;49.136;10.366;2022-07-18T04:11:54;12.10;90.90
20432;DHT22;10375;49.136;10.366;2022-07-18T04:14:21;12.20;90.70
20432;DHT22;10375;49.136;10.366;2022-07-18T04:16:51;12.20;90.80
20432;DHT22;10375;49.136;10.366;2022-07-18T04:19:19;12.20;90.70
20432;DHT22;10375;49.136;10.366;2022-07-18T04:21:46;12.20;91.10
20432;DHT22;10375;49.136;10.366;2022-07-18T04:24:13;12.30;90.50
20432;DHT22;10375;49.136;10.366;2022-07-18T04:26:40;12.30;90.40
20432;DHT22;10375;49.136;10.366;2022-07-18T04:29:07;12.40;90.40
20432;DHT22;10375;49.136;10.366;2022-07-18T04:31:34;12.40;90.30
20432;DHT22;10375;49.136;10.366;2022-07-18T04:34:01;12.50;90.60
20432;DHT22;10375;49.136;10.366;2022-07-18T04:36:28;12.60;90.10
20432;DHT22;10375;49.136;10.366;2022-07-18T04:38:56;12.80;89.50
20432;DHT22;10375;49.136;10.366;2022-07-18T04:41:23;12.90;89.00
20432;DHT22;10375;49.136;10.366;2022-07-18T04:43:52;13.00;88.50
20432;DHT22;10375;49.136;10.366;2022-07-18T04:46:19;13.00;87.40
20432;DHT22;10375;49.136;10.366;2022-07-18T04:48:46;13.20;86.60
20432;DHT22;10375;49.136;10.366;2022-07-18T04:51:14;13.30;87.00
20432;DHT22;10375;49.136;10.366;2022-07-18T04:53:41;13.50;86.80
20432;DHT22;10375;49.136;10.366;2022-07-18T04:56:08;13.60;86.90
20432;DHT22;10375;49.136;10.366;2022-07-18T04:58:35;13.60;87.10
20432;DHT22;10375;49.136;10.366;2022-07-18T05:01:03;13.80;87.50
20432;DHT22;10375;49.136;10.366;2022-07-18T05:03:30;13.90;87.00
20432;DHT22;10375;49.136;10.366;2022-07-18T05:05:57;14.10;86.60
20432;DHT22;10375;49.136;10.366;2022-07-18T05:08:24;14.20;86.30
20432;DHT22;10375;49.136;10.366;2022-07-18T05:10:52;14.30;86.40
20432;DHT22;10375;49.136;10.366;2022-07-18T05:13:19;14.40;85.50
20432;DHT22;10375;49.136;10.366;2022-07-18T05:15:46;14.50;85.50
20432;DHT22;10375;49.136;10.366;2022-07-18T05:18:13;14.50;85.80
20432;DHT22;10375;49.136;10.366;2022-07-18T05:20:40;14.70;85.60
20432;DHT22;10375;49.136;10.366;2022-07-18T05:23:10;16.30;83.10
20432;DHT22;10375;49.136;10.366;2022-07-18T05:25:40;19.50;74.30
20432;DHT22;10375;49.136;10.366;2022-07-18T05:28:07;22.90;64.40
20432;DHT22;10375;49.136;10.366;2022-07-18T05:30:34;25.70;56.80
20432;DHT22;10375;49.136;10.366;2022-07-18T05:33:01;27.90;52.50
20432;DHT22;10375;49.136;10.366;2022-07-18T05:35:29;29.50;49.30
20432;DHT22;10375;49.136;10.366;2022-07-18T05:37:56;30.60;47.10
20432;DHT22;10375;49.136;10.366;2022-07-18T05:40:23;31.60;45.60
20432;DHT22;10375;49.136;10.366;2022-07-18T05:42:50;32.60;43.70
20432;DHT22;10375;49.136;10.366;2022-07-18T05:45:24;33.40;42.30
20432;DHT22;10375;49.136;10.366;2022-07-18T05:47:52;34.00;41.10
20432;DHT22;10375;49.136;10.366;2022-07-18T05:50:20;34.70;40.10
20432;DHT22;10375;49.136;10.366;2022-07-18T05:52:47;35.30;39.00
20432;DHT22;10375;49.136;10.366;2022-07-18T05:55:14;35.90;38.30
20432;DHT22;10375;49.136;10.366;2022-07-18T05:57:42;36.30;37.60
20432;DHT22;10375;49.136;10.366;2022-07-18T06:00:10;36.80;36.90
20432;DHT22;10375;49.136;10.366;2022-07-18T06:02:38;37.10;36.20
20432;DHT22;10375;49.136;10.366;2022-07-18T06:05:06;37.60;35.70
20432;DHT22;10375;49.136;10.366;2022-07-18T06:07:53;37.80;34.50
20432;DHT22;10375;49.136;10.366;2022-07-18T06:10:21;38.10;33.70
20432;DHT22;10375;49.136;10.366;2022-07-18T06:12:49;38.20;33.60
20432;DHT22;10375;49.136;10.366;2022-07-18T06:15:17;38.40;33.20
20432;DHT22;10375;49.136;10.366;2022-07-18T06:17:44;38.60;33.30
20432;DHT22;10375;49.136;10.366;2022-07-18T06:20:11;38.80;33.00
20432;DHT22;10375;49.136;10.366;2022-07-18T06:22:38;38.80;32.30
20432;DHT22;10375;49.136;10.366;2022-07-18T06:25:06;38.90;32.50
20432;DHT22;10375;49.136;10.366;2022-07-18T06:27:34;38.60;33.10
20432;DHT22;10375;49.136;10.366;2022-07-18T06:30:05;38.80;33.30
20432;DHT22;10375;49.136;10.366;2022-07-18T06:32:34;39.00;33.00
20432;DHT22;10375;49.136;10.366;2022-07-18T06:35:01;39.20;32.90
20432;DHT22;10375;49.136;10.366;2022-07-18T06:37:28;39.30;31.90
20432;DHT22;10375;49.136;10.366;2022-07-18T06:39:55;39.40;32.00
20432;DHT22;10375;49.136;10.366;2022-07-18T06:42:28;39.40;32.70
20432;DHT22;10375;49.136;10.366;2022-07-18T06:44:55;39.40;31.70
20432;DHT22;10375;49.136;10.366;2022-07-18T06:47:22;39.60;31.90
20432;DHT22;10375;49.136;10.366;2022-07-18T06:49:49;40.00;31.50
20432;DHT22;10375;49.136;10.366;2022-07-18T06:52:16;40.60;30.10
20432;DHT22;10375;49.136;10.366;2022-07-18T06:54:44;40.40;31.20
20432;DHT22;10375;49.136;10.366;2022-07-18T06:57:10;40.70;31.20
20432;DHT22;10375;49.136;10.366;2022-07-18T06:59:38;40.60;31.40
20432;DHT22;10375;49.136;10.366;2022-07-18T07:02:11;40.70;30.80
20432;DHT22;10375;49.136;10.366;2022-07-18T07:04:39;40.70;31.10
20432;DHT22;10375;49.136;10.366;2022-07-18T07:07:06;40.80;30.00
20432;DHT22;10375;49.136;10.366;2022-07-18T07:09:33;40.90;30.00
20432;DHT22;10375;49.136;10.366;2022-07-18T07:12:00;41.00;30.20
20432;DHT22;10375;49.136;10.366;2022-07-18T07:14:27;40.90;30.50
20432;DHT22;10375;49.136;10.366;2022-07-18T07:16:54;40.60;30.00
20432;DHT22;10375;49.136;10.366;2022-07-18T07:19:21;40.50;30.30
20432;DHT22;10375;49.136;10.366;2022-07-18T07:21:48;40.30;30.50
20432;DHT22;10375;49.136;10.366;2022-07-18T07:24:15;40.10;31.10
20432;DHT22;10375;49.136;10.366;2022-07-18T07:26:42;39.80;30.80
20432;DHT22;10375;49.136;10.366;2022-07-18T07:29:09;39.30;30.70
20432;DHT22;10375;49.136;10.366;2022-07-18T07:31:37;39.40;31.90
20432;DHT22;10375;49.136;10.366;2022-07-18T07:34:04;39.30;29.80
20432;DHT22;10375;49.136;10.366;2022-07-18T07:36:32;39.00;31.00
20432;DHT22;10375;49.136;10.366;2022-07-18T07:39:00;38.80;30.80
20432;DHT22;10375;49.136;10.366;2022-07-18T07:41:27;38.70;29.80
20432;DHT22;10375;49.136;10.366;2022-07-18T07:43:54;38.60;29.60
20432;DHT22;10375;49.136;10.366;2022-07-18T07:46:21;39.70;30.00
20432;DHT22;10375;49.136;10.366;2022-07-18T07:48:48;41.00;29.40
20432;DHT22;10375;49.136;10.366;2022-07-18T07:51:15;42.40;28.60
20432;DHT22;10375;49.136;10.366;2022-07-18T07:53:50;41.10;28.10
20432;DHT22;10375;49.136;10.366;2022-07-18T07:56:17;39.20;29.30
20432;DHT22;10375;49.136;10.366;2022-07-18T07:58:46;37.70;27.80
20432;DHT22;10375;49.136;10.366;2022-07-18T08:01:13;35.90;29.70
20432;DHT22;10375;49.136;10.366;2022-07-18T08:03:44;34.80;29.90
20432;DHT22;10375;49.136;10.366;2022-07-18T08:06:12;34.50;32.00
20432;DHT22;10375;49.136;10.366;2022-07-18T08:08:40;34.50;32.90
20432;DHT22;10375;49.136;10.366;2022-07-18T08:11:07;34.20;31.80
20432;DHT22;10375;49.136;10.366;2022-07-18T08:13:34;34.10;33.70
20432;DHT22;10375;49.136;10.366;2022-07-18T08:16:01;34.20;33.80
20432;DHT22;10375;49.136;10.366;2022-07-18T08:18:28;34.30;32.70
20432;DHT22;10375;49.136;10.366;2022-07-18T08:20:56;34.30;33.50
20432;DHT22;10375;49.136;10.366;2022-07-18T08:23:23;34.40;32.50
20432;DHT22;10375;49.136;10.366;2022-07-18T08:25:50;34.50;32.60
20432;DHT22;10375;49.136;10.366;2022-07-18T08:28:17;34.30;29.80
20432;DHT22;10375;49.136;10.366;2022-07-18T08:30:45;34.20;31.80
20432;DHT22;10375;49.136;10.366;2022-07-18T08:33:12;34.30;31.80
20432;DHT22;10375;49.136;10.366;2022-07-18T08:35:39;34.40;31.10
20432;DHT22;10375;49.136;10.366;2022-07-18T08:38:07;34.60;32.20
20432;DHT22;10375;49.136;10.366;2022-07-18T08:40:36;34.30;30.80
20432;DHT22;10375;49.136;10.366;2022-07-18T08:43:04;34.40;32.10
20432;DHT22;10375;49.136;10.366;2022-07-18T08:45:52;34.60;31.50
20432;DHT22;10375;49.136;10.366;2022-07-18T08:48:21;34.60;31.20
20432;DHT22;10375;49.136;10.366;2022-07-18T08:50:49;34.40;29.90
20432;DHT22;10375;49.136;10.366;2022-07-18T08:53:17;34.10;30.60
20432;DHT22;10375;49.136;10.366;2022-07-18T08:55:44;34.20;30.00
20432;DHT22;10375;49.136;10.366;2022-07-18T08:58:12;34.30;30.60
20432;DHT22;10375;49.136;10.366;2022-07-18T09:01:01;34.40;30.70
20432;DHT22;10375;49.136;10.366;2022-07-18T09:03:28;34.60;31.00
20432;DHT22;10375;49.136;10.366;2022-07-18T09:06:11;34.70;31.40
20432;DHT22;10375;49.136;10.366;2022-07-18T09:08:40;34.70;29.40
20432;DHT22;10375;49.136;10.366;2022-07-18T09:11:23;34.60;31.20
20432;DHT22;10375;49.136;10.366;2022-07-18T09:14:30;34.10;31.70
20432;DHT22;10375;49.136;10.366;2022-07-18T09:17:20;33.90;30.00
20432;DHT22;10375;49.136;10.366;2022-07-18T09:22:33;33.50;30.90
20432;DHT22;10375;49.136;10.366;2022-07-18T09:25:21;33.40;31.90
20432;DHT22;10375;49.136;10.366;2022-07-18T09:27:50;33.40;32.40
20432;DHT22;10375;49.136;10.366;2022-07-18T09:30:27;33.70;32.30
20432;DHT22;10375;49.136;10.366;2022-07-18T09:33:07;33.80;31.00
20432;DHT22;10375;49.136;10.366;2022-07-18T09:35:50;33.50;30.90
20432;DHT22;10375;49.136;10.366;2022-07-18T09:38:21;33.20;32.80
20432;DHT22;10375;49.136;10.366;2022-07-18T09:40:51;33.50;32.30
20432;DHT22;10375;49.136;10.366;2022-07-18T09:43:20;33.50;32.20
20432;DHT22;10375;49.136;10.366;2022-07-18T09:45:50;33.50;31.70
20432;DHT22;10375;49.136;10.366;2022-07-18T09:48:19;33.80;32.40
20432;DHT22;10375;49.136;10.366;2022-07-18T09:53:31;34.10;31.70
20432;DHT22;10375;49.136;10.366;2022-07-18T09:56:05;34.30;32.30
20432;DHT22;10375;49.136;10.366;2022-07-18T09:58:37;34.50;31.50
20432;DHT22;10375;49.136;10.366;2022-07-18T10:01:06;34.40;30.90
20432;DHT22;10375;49.136;10.366;2022-07-18T10:03:34;34.50;31.70
20432;DHT22;10375;49.136;10.366;2022-07-18T10:06:03;33.40;31.30
20432;DHT22;10375;49.136;10.366;2022-07-18T10:08:32;33.30;31.60
20432;DHT22;10375;49.136;10.366;2022-07-18T10:11:02;33.50;32.50
20432;DHT22;10375;49.136;10.366;2022-07-18T10:13:31;34.00;32.10
20432;DHT22;10375;49.136;10.366;2022-07-18T10:15:59;33.50;32.30
20432;DHT22;10375;49.136;10.366;2022-07-18T10:18:34;32.80;32.10
20432;DHT22;10375;49.136;10.366;2022-07-18T10:21:12;32.90;33.40
20432;DHT22;10375;49.136;10.366;2022-07-18T10:23:45;33.10;32.30
20432;DHT22;10375;49.136;10.366;2022-07-18T10:26:21;33.60;32.20
20432;DHT22;10375;49.136;10.366;2022-07-18T10:31:24;34.60;30.60
20432;DHT22;10375;49.136;10.366;2022-07-18T10:33:54;34.80;30.20
20432;DHT22;10375;49.136;10.366;2022-07-18T10:36:40;35.00;31.80
20432;DHT22;10375;49.136;10.366;2022-07-18T10:39:15;35.40;30.70
20432;DHT22;10375;49.136;10.366;2022-07-18T11:00:37;35.80;29.90
20432;DHT22;10375;49.136;10.366;2022-07-18T11:03:11;35.70;30.10
20432;DHT22;10375;49.136;10.366;2022-07-18T11:16:04;35.60;29.00
20432;DHT22;10375;49.136;10.366;2022-07-18T11:24:00;35.20;30.70
20432;DHT22;10375;49.136;10.366;2022-07-18T11:26:28;35.30;30.00
20432;DHT22;10375;49.136;10.366;2022-07-18T11:28:59;35.40;30.50
20432;DHT22;10375;49.136;10.366;2022-07-18T11:31:27;35.00;29.80
20432;DHT22;10375;49.136;10.366;2022-07-18T11:33:58;34.90;30.30
20432;DHT22;10375;49.136;10.366;2022-07-18T11:36:31;35.40;30.70
20432;DHT22;10375;49.136;10.366;2022-07-18T11:39:00;35.70;29.70
20432;DHT22;10375;49.136;10.366;2022-07-18T11:41:28;35.00;29.90
20432;DHT22;10375;49.136;10.366;2022-07-18T11:43:56;34.60;30.70
20432;DHT22;10375;49.136;10.366;2022-07-18T11:46:25;34.60;30.80
20432;DHT22;10375;49.136;10.366;2022-07-18T11:49:04;34.90;31.40
20432;DHT22;10375;49.136;10.366;2022-07-18T11:51:36;35.20;31.40
20432;DHT22;10375;49.136;10.366;2022-07-18T11:54:05;35.60;30.50
20432;DHT22;10375;49.136;10.366;2022-07-18T11:56:33;35.70;29.80
20432;DHT22;10375;49.136;10.366;2022-07-18T11:59:12;35.80;29.80
20432;DHT22;10375;49.136;10.366;2022-07-18T12:01:39;35.40;29.80
20432;DHT22;10375;49.136;10.366;2022-07-18T12:04:06;35.10;30.20
20432;DHT22;10375;49.136;10.366;2022-07-18T12:06:33;34.90;30.30
20432;DHT22;10375;49.136;10.366;2022-07-18T12:09:00;34.80;29.90
20432;DHT22;10375;49.136;10.366;2022-07-18T12:11:32;34.30;30.50
20432;DHT22;10375;49.136;10.366;2022-07-18T12:16:48;34.50;31.50
20432;DHT22;10375;49.136;10.366;2022-07-18T12:19:20;35.20;30.10
20432;DHT22;10375;49.136;10.366;2022-07-18T12:22:05;34.90;29.90
20432;DHT22;10375;49.136;10.366;2022-07-18T12:30:03;35.20;30.60
20432;DHT22;10375;49.136;10.366;2022-07-18T12:35:16;36.20;30.20
20432;DHT22;10375;49.136;10.366;2022-07-18T12:40:56;35.10;30.30
20432;DHT22;10375;49.136;10.366;2022-07-18T12:43:35;34.60;30.50
20432;DHT22;10375;49.136;10.366;2022-07-18T12:46:09;34.20;31.00
20432;DHT22;10375;49.136;10.366;2022-07-18T12:48:37;34.40;31.00
20432;DHT22;10375;49.136;10.366;2022-07-18T12:51:06;34.70;31.40
20432;DHT22;10375;49.136;10.366;2022-07-18T12:53:35;34.80;30.60
20432;DHT22;10375;49.136;10.366;2022-07-18T12:56:03;34.70;30.20
20432;DHT22;10375;49.136;10.366;2022-07-18T12:58:30;34.40;30.50
20432;DHT22;10375;49.136;10.366;2022-07-18T13:00:57;34.40;31.70
20432;DHT22;10375;49.136;10.366;2022-07-18T13:03:32;35.00;31.00
20432;DHT22;10375;49.136;10.366;2022-07-18T13:06:00;35.70;29.80
20432;DHT22;10375;49.136;10.366;2022-07-18T13:08:27;36.00;30.80
20432;DHT22;10375;49.136;10.366;2022-07-18T13:10:55;36.30;29.80
20432;DHT22;10375;49.136;10.366;2022-07-18T13:13:22;36.60;29.90
20432;DHT22;10375;49.136;10.366;2022-07-18T13:15:49;36.90;30.30
20432;DHT22;10375;49.136;10.366;2022-07-18T13:18:17;37.10;29.70
20432;DHT22;10375;49.136;10.366;2022-07-18T13:20:44;37.10;29.80
20432;DHT22;10375;49.136;10.366;2022-07-18T13:23:12;37.00;29.60
20432;DHT22;10375;49.136;10.366;2022-07-18T13:25:42;36.60;30.20
20432;DHT22;10375;49.136;10.366;2022-07-18T13:28:09;36.60;30.00
20432;DHT22;10375;49.136;10.366;2022-07-18T13:30:37;36.70;30.30
20432;DHT22;10375;49.136;10.366;2022-07-18T13:33:04;36.80;29.40
20432;DHT22;10375;49.136;10.366;2022-07-18T13:35:32;36.70;30.00
20432;DHT22;10375;49.136;10.366;2022-07-18T13:38:00;36.60;31.00
20432;DHT22;10375;49.136;10.366;2022-07-18T13:40:27;36.40;30.90
20432;DHT22;10375;49.136;10.366;2022-07-18T13:42:55;36.20;30.70
20432;DHT22;10375;49.136;10.366;2022-07-18T13:45:23;35.70;30.00
20432;DHT22;10375;49.136;10.366;2022-07-18T13:47:50;35.50;30.40
20432;DHT22;10375;49.136;10.366;2022-07-18T13:50:17;35.40;30.60
20432;DHT22;10375;49.136;10.366;2022-07-18T13:52:44;35.50;30.50
20432;DHT22;10375;49.136;10.366;2022-07-18T13:55:11;35.70;31.50
20432;DHT22;10375;49.136;10.366;2022-07-18T13:57:38;35.90;30.70
20432;DHT22;10375;49.136;10.366;2022-07-18T14:00:07;36.00;31.10
20432;DHT22;10375;49.136;10.366;2022-07-18T14:02:36;36.20;30.80
20432;DHT22;10375;49.136;10.366;2022-07-18T14:05:04;36.50;30.70
20432;DHT22;10375;49.136;10.366;2022-07-18T14:07:44;36.70;30.80
20432;DHT22;10375;49.136;10.366;2022-07-18T14:10:13;36.80;30.90
20432;DHT22;10375;49.136;10.366;2022-07-18T14:12:41;36.90;30.20
20432;DHT22;10375;49.136;10.366;2022-07-18T14:15:09;37.00;30.30
20432;DHT22;10375;49.136;10.366;2022-07-18T14:17:36;37.00;30.10
20432;DHT22;10375;49.136;10.366;2022-07-18T14:20:04;37.00;29.60
20432;DHT22;10375;49.136;10.366;2022-07-18T14:22:35;37.00;30.50
20432;DHT22;10375;49.136;10.366;2022-07-18T14:25:04;37.10;29.80
20432;DHT22;10375;49.136;10.366;2022-07-18T14:27:32;37.00;30.00
20432;DHT22;10375;49.136;10.366;2022-07-18T14:29:59;36.40;30.00
20432;DHT22;10375;49.136;10.366;2022-07-18T14:32:27;35.90;29.90
20432;DHT22;10375;49.136;10.366;2022-07-18T14:34:55;36.00;30.80
20432;DHT22;10375;49.136;10.366;2022-07-18T14:37:23;36.10;31.50
20432;DHT22;10375;49.136;10.366;2022-07-18T14:39:50;36.20;30.90
20432;DHT22;10375;49.136;10.366;2022-07-18T14:42:22;36.20;30.20
20432;DHT22;10375;49.136;10.366;2022-07-18T14:44:51;36.30;30.50
20432;DHT22;10375;49.136;10.366;2022-07-18T14:47:19;36.30;29.70
20432;DHT22;10375;49.136;10.366;2022-07-18T14:49:46;36.00;29.50
20432;DHT22;10375;49.136;10.366;2022-07-18T14:52:13;35.60;29.70
20432;DHT22;10375;49.136;10.366;2022-07-18T14:54:40;35.30;30.10
20432;DHT22;10375;49.136;10.366;2022-07-18T14:57:07;35.30;31.30
20432;DHT22;10375;49.136;10.366;2022-07-18T14:59:35;35.50;31.10
20432;DHT22;10375;49.136;10.366;2022-07-18T15:02:02;35.60;31.70
20432;DHT22;10375;49.136;10.366;2022-07-18T15:04:34;35.80;31.30
20432;DHT22;10375;49.136;10.366;2022-07-18T15:07:03;35.80;30.70
20432;DHT22;10375;49.136;10.366;2022-07-18T15:09:30;35.70;31.00
20432;DHT22;10375;49.136;10.366;2022-07-18T15:12:01;35.80;31.40
20432;DHT22;10375;49.136;10.366;2022-07-18T15:14:28;35.80;31.80
20432;DHT22;10375;49.136;10.366;2022-07-18T15:16:56;35.60;31.00
20432;DHT22;10375;49.136;10.366;2022-07-18T15:19:23;35.30;30.50
20432;DHT22;10375;49.136;10.366;2022-07-18T15:21:51;35.10;31.00
20432;DHT22;10375;49.136;10.366;2022-07-18T15:24:19;35.10;31.60
20432;DHT22;10375;49.136;10.366;2022-07-18T15:26:46;35.20;32.00
20432;DHT22;10375;49.136;10.366;2022-07-18T15:29:13;35.30;31.80
20432;DHT22;10375;49.136;10.366;2022-07-18T15:31:41;35.30;32.60
20432;DHT22;10375;49.136;10.366;2022-07-18T15:34:09;35.20;32.00
20432;DHT22;10375;49.136;10.366;2022-07-18T15:36:36;35.20;31.40
20432;DHT22;10375;49.136;10.366;2022-07-18T15:39:03;35.10;32.00
20432;DHT22;10375;49.136;10.366;2022-07-18T15:41:31;35.00;31.60
20432;DHT22;10375;49.136;10.366;2022-07-18T15:43:59;34.90;32.50
20432;DHT22;10375;49.136;10.366;2022-07-18T15:46:27;34.90;32.50
20432;DHT22;10375;49.136;10.366;2022-07-18T15:48:54;34.80;32.10
20432;DHT22;10375;49.136;10.366;2022-07-18T15:51:22;34.80;32.30
20432;DHT22;10375;49.136;10.366;2022-07-18T15:53:50;34.70;32.40
20432;DHT22;10375;49.136;10.366;2022-07-18T15:56:17;34.60;32.10
20432;DHT22;10375;49.136;10.366;2022-07-18T15:58:44;34.60;32.30
20432;DHT22;10375;49.136;10.366;2022-07-18T16:01:11;34.50;33.00
20432;DHT22;10375;49.136;10.366;2022-07-18T16:03:39;34.40;32.30
20432;DHT22;10375;49.136;10.366;2022-07-18T16:06:08;34.40;33.20
20432;DHT22;10375;49.136;10.366;2022-07-18T16:08:35;34.40;32.70
20432;DHT22;10375;49.136;10.366;2022-07-18T16:11:03;34.50;32.20
20432;DHT22;10375;49.136;10.366;2022-07-18T16:13:30;34.40;31.60
20432;DHT22;10375;49.136;10.366;2022-07-18T16:15:57;34.00;31.30
20432;DHT22;10375;49.136;10.366;2022-07-18T16:18:25;33.80;33.30
20432;DHT22;10375;49.136;10.366;2022-07-18T16:20:52;33.80;33.10